Time;durP1;ratioP1;P1;durP2;ratioP2;P2;SDS_P1;SDS_P2;PMS_P1;PMS_P2;Temp;Humidity;BMP_temperature;BMP_pressure;BME280_temperature;BME280_humidity;BME280_pressure;Samples;Min_cycle;Max_cycle;Signal;HPM_P1;HPM_P2
2021/05/04 00:01:15;;;;;;;;;;;;;;;;;;5029254;28;19977;-66
2021/05/04 00:03:41;;;;;;;;;;;;;;;;;;5032396;28;19932;-65
2021/05/04 00:06:08;;;;;;;;;;;;;;;;;;5034687;28;19925;-65
2021/05/04 00:08:34;;;;;;;;;;;;;;;;;;5030624;28;20337;-65
2021/05/04 00:11:01;;;;;;;;;;;;;;;;;;5021927;28;20024;-66
2021/05/04 00:13:27;;;;;;;;;;;;;;;;;;5032975;28;20308;-67
2021/05/04 00:15:54;;;;;;;;;;;;;;;;;;5031676;28;19977;-66
2021/05/04 00:18:20;;;;;;;;;;;;;;;;;;5032244;28;19935;-66
2021/05/04 00:20:47;;;;;;;;;;;;;;;;;;5027515;28;20024;-65
2021/05/04 00:23:13;;;;;;;;;;;;;;;;;;5026736;28;20020;-65
2021/05/04 00:25:41;;;;;;;;;;;;;;;;;;5032088;28;19937;-65
2021/05/04 00:28:07;;;;;;;;;;;;;;;;;;5024861;28;19940;-65
2021/05/04 00:30:34;;;;;;;;;;;;;;;;;;5034086;28;19931;-66
2021/05/04 00:33:01;;;;;;;;;;;;;;;;;;5027355;28;19935;-66
2021/05/04 00:35:27;;;;;;;;;;;;;;;;;;5033438;28;19940;-65
2021/05/04 00:37:54;;;;;;;;;;;;;;;;;;5026473;28;19973;-66
2021/05/04 00:40:20;;;;;;;;;;;;;;;;;;5030481;28;19925;-65
2021/05/04 00:42:47;;;;;;;;;;;;;;;;;;5029729;28;20400;-66
2021/05/04 00:45:13;;;;;;;;;;;;;;;;;;5025527;28;19926;-67
2021/05/04 00:47:40;;;;;;;;;;;;;;;;;;5027640;28;20052;-65
2021/05/04 00:50:09;;;;;;;;;;;;;;;;;;5024476;28;19925;-66
2021/05/04 00:52:36;;;;;;;;;;;;;;;;;;5028510;28;19936;-64
2021/05/04 00:55:04;;;;;;;;;;;;;;;;;;5022913;28;19964;-66
2021/05/04 00:57:31;;;;;;;;;;;;;;;;;;5030435;28;19932;-66
2021/05/04 00:59:57;;;;;;;;;;;;;;;;;;5030441;28;19940;-67
2021/05/04 01:02:24;;;;;;;;;;;;;;;;;;5028864;28;19926;-62
2021/05/04 01:04:50;;;;;;;;;;;;;;;;;;5032052;28;19936;-66
2021/05/04 01:07:17;;;;;;;;;;;;;;;;;;5029221;28;19930;-66
2021/05/04 01:09:45;;;;;;;;;;;;;;;;;;5031919;28;19932;-65
2021/05/04 01:12:12;;;;;;;;;;;;;;;;;;5027813;28;19967;-63
2021/05/04 01:14:38;;;;;;;;;;;;;;;;;;5024567;28;19925;-65
2021/05/04 01:17:05;;;;;;;;;;;;;;;;;;5021776;28;20324;-66
2021/05/04 01:19:31;;;;;;;;;;;;;;;;;;5025876;28;19925;-66
2021/05/04 01:21:58;;;;;;;;;;;;;;;;;;5027446;28;19925;-63
2021/05/04 01:24:24;;;;;;;;;;;;;;;;;;5023940;28;19925;-65
2021/05/04 01:26:51;;;;;;;;;;;;;;;;;;5025997;28;20024;-65
2021/05/04 01:29:17;;;;;;;;;;;;;;;;;;5029908;28;19971;-62
2021/05/04 01:31:44;;;;;;;;;;;;;;;;;;5021721;28;19969;-69
2021/05/04 01:34:11;;;;;;;;;;;;;;;;;;5028942;28;20346;-67
2021/05/04 01:36:38;;;;;;;;;;;;;;;;;;5030934;28;20030;-66
2021/05/04 01:39:04;;;;;;;;;;;;;;;;;;5031886;28;19931;-66
2021/05/04 01:41:31;;;;;;;;;;;;;;;;;;5027773;28;19925;-63
2021/05/04 01:43:58;;;;;;;;;;;;;;;;;;5022530;28;19933;-72
2021/05/04 01:46:24;;;;;;;;;;;;;;;;;;5029097;28;19947;-65
2021/05/04 01:48:51;;;;;;;;;;;;;;;;;;5028156;28;19932;-66
2021/05/04 01:51:17;;;;;;;;;;;;;;;;;;5026127;28;19932;-65
2021/05/04 01:53:44;;;;;;;;;;;;;;;;;;5024778;28;19987;-66
2021/05/04 01:56:10;;;;;;;;;;;;;;;;;;5030044;28;20504;-66
2021/05/04 01:58:37;;;;;;;;;;;;;;;;;;5022016;28;19995;-68
2021/05/04 02:01:03;;;;;;;;;;;;;;;;;;5028149;28;19934;-64
2021/05/04 02:03:30;;;;;;;;;;;;;;;;;;5021826;28;20449;-66
2021/05/04 02:05:56;;;;;;;;;;;;;;;;;;5016850;28;19925;-66
2021/05/04 02:08:23;;;;;;;;;;;;;;;;;;5026171;28;19988;-65
2021/05/04 02:10:49;;;;;;;;;;;;;;;;;;5029280;28;19935;-67
2021/05/04 02:13:16;;;;;;;;;;;;;;;;;;5023503;28;20024;-65
2021/05/04 02:15:42;;;;;;;;;;;;;;;;;;5031111;28;19967;-66
2021/05/04 02:18:09;;;;;;;;;;;;;;;;;;5029196;28;20383;-66
2021/05/04 02:20:35;;;;;;;;;;;;;;;;;;5032705;28;19933;-66
2021/05/04 02:23:02;;;;;;;;;;;;;;;;;;5032171;28;19931;-63
2021/05/04 02:25:28;;;;;;;;;;;;;;;;;;5032218;28;19932;-63
2021/05/04 02:27:55;;;;;;;;;;;;;;;;;;5026805;28;20040;-65
2021/05/04 02:30:21;;;;;;;;;;;;;;;;;;5023375;28;19925;-65
2021/05/04 02:32:48;;;;;;;;;;;;;;;;;;5031820;28;19925;-66
2021/05/04 02:35:14;;;;;;;;;;;;;;;;;;5026995;28;20016;-63
2021/05/04 02:37:41;;;;;;;;;;;;;;;;;;5024616;28;19925;-68
2021/05/04 02:40:07;;;;;;;;;;;;;;;;;;5030642;28;19979;-66
2021/05/04 02:42:34;;;;;;;;;;;;;;;;;;5027905;28;19933;-67
2021/05/04 02:45:00;;;;;;;;;;;;;;;;;;5028655;28;19936;-65
2021/05/04 02:47:27;;;;;;;;;;;;;;;;;;5029924;28;19929;-65
2021/05/04 02:49:53;;;;;;;;;;;;;;;;;;5036382;28;20015;-66
2021/05/04 02:52:20;;;;;;;;;;;;;;;;;;5033748;28;20371;-66
2021/05/04 02:54:46;;;;;;;;;;;;;;;;;;5038277;28;20009;-66
2021/05/04 02:57:13;;;;;;;;;;;;;;;;;;5038305;28;20020;-67
2021/05/04 02:59:39;;;;;;;;;;;;;;;;;;5034021;28;20029;-66
2021/05/04 03:02:06;;;;;;;;;;;;;;;;;;5020001;28;20030;-66
2021/05/04 03:04:32;;;;;;;;;;;;;;;;;;5029434;28;20499;-65
2021/05/04 03:06:59;;;;;;;;;;;;;;;;;;5024190;28;19968;-67
2021/05/04 03:09:25;;;;;;;;;;;;;;;;;;5018248;28;19926;-65
2021/05/04 03:11:52;;;;;;;;;;;;;;;;;;5028471;28;20339;-64
2021/05/04 03:14:18;;;;;;;;;;;;;;;;;;5028870;28;20032;-66
2021/05/04 03:16:45;;;;;;;;;;;;;;;;;;5023015;28;19979;-66
2021/05/04 03:19:11;;;;;;;;;;;;;;;;;;5024160;28;19925;-65
2021/05/04 03:21:38;;;;;;;;;;;;;;;;;;5028702;28;19969;-66
2021/05/04 03:24:04;;;;;;;;;;;;;;;;;;5028516;28;20015;-66
2021/05/04 03:26:31;;;;;;;;;;;;;;;;;;5029517;28;19932;-66
2021/05/04 03:28:57;;;;;;;;;;;;;;;;;;5019683;28;19933;-67
2021/05/04 03:31:24;;;;;;;;;;;;;;;;;;5027938;28;20375;-67
2021/05/04 03:33:50;;;;;;;;;;;;;;;;;;5024533;28;20357;-66
2021/05/04 03:36:17;;;;;;;;;;;;;;;;;;5029667;28;19926;-67
2021/05/04 03:38:43;;;;;;;;;;;;;;;;;;5027816;28;20020;-69
2021/05/04 03:41:10;;;;;;;;;;;;;;;;;;5023497;28;20346;-66
2021/05/04 03:43:36;;;;;;;;;;;;;;;;;;5027476;28;19925;-65
2021/05/04 03:46:03;;;;;;;;;;;;;;;;;;5021501;28;19925;-66
2021/05/04 03:48:29;;;;;;;;;;;;;;;;;;5020145;28;19969;-67
2021/05/04 03:50:56;;;;;;;;;;;;;;;;;;5022890;28;19926;-66
2021/05/04 03:53:22;;;;;;;;;;;;;;;;;;5022557;28;20023;-66
2021/05/04 03:55:49;;;;;;;;;;;;;;;;;;5025180;28;19925;-65
2021/05/04 03:58:15;;;;;;;;;;;;;;;;;;5024945;28;20371;-66
2021/05/04 04:00:42;;;;;;;;;;;;;;;;;;5024134;28;19932;-65
2021/05/04 04:03:08;;;;;;;;;;;;;;;;;;5025053;28;19932;-66
2021/05/04 04:05:35;;;;;;;;;;;;;;;;;;5020083;28;20020;-67
2021/05/04 04:08:01;;;;;;;;;;;;;;;;;;5020278;28;19926;-65
2021/05/04 04:10:28;;;;;;;;;;;;;;;;;;5026999;28;19933;-66
2021/05/04 04:12:54;;;;;;;;;;;;;;;;;;5021093;28;19940;-66
2021/05/04 04:15:21;;;;;;;;;;;;;;;;;;5024174;28;19933;-67
2021/05/04 04:17:47;;;;;;;;;;;;;;;;;;5030932;28;19925;-67
2021/05/04 04:20:14;;;;;;;;;;;;;;;;;;5025520;28;19963;-67
2021/05/04 04:22:40;;;;;;;;;;;;;;;;;;5024188;28;20444;-67
2021/05/04 04:25:07;;;;;;;;;;;;;;;;;;5029115;28;20024;-65
2021/05/04 04:27:33;;;;;;;;;;;;;;;;;;5026598;28;19925;-65
2021/05/04 04:30:00;;;;;;;;;;;;;;;;;;5031854;28;19956;-65
2021/05/04 04:32:26;;;;;;;;;;;;;;;;;;5027194;28;19925;-65
2021/05/04 04:34:53;;;;;;;;;;;;;;;;;;5032590;28;19931;-65
2021/05/04 04:37:19;;;;;;;;;;;;;;;;;;5024984;28;19929;-66
2021/05/04 04:39:46;;;;;;;;;;;;;;;;;;5025442;28;19932;-65
2021/05/04 04:42:12;;;;;;;;;;;;;;;;;;5023611;28;19925;-63
2021/05/04 04:44:39;;;;;;;;;;;;;;;;;;5027567;28;19972;-64
2021/05/04 04:47:06;;;;;;;;;;;;;;;;;;5030756;28;20016;-64
2021/05/04 04:49:33;;;;;;;;;;;;;;;;;;5022610;28;20428;-64
2021/05/04 04:51:59;;;;;;;;;;;;;;;;;;5030093;28;19929;-65
2021/05/04 04:54:26;;;;;;;;;;;;;;;;;;5023189;28;19925;-65
2021/05/04 04:56:52;;;;;;;;;;;;;;;;;;5027744;28;19926;-65
2021/05/04 04:59:19;;;;;;;;;;;;;;;;;;5024255;28;19929;-65
2021/05/04 05:01:45;;;;;;;;;;;;;;;;;;5027094;28;19951;-65
2021/05/04 05:04:12;;;;;;;;;;;;;;;;;;5019550;28;20363;-65
2021/05/04 05:06:38;;;;;;;;;;;;;;;;;;5026270;28;19951;-65
2021/05/04 05:09:08;;;;;;;;;;;;;;;;;;5026088;28;20020;-64
2021/05/04 05:11:34;;;;;;;;;;;;;;;;;;5029236;28;20378;-64
2021/05/04 05:14:01;;;;;;;;;;;;;;;;;;5030023;28;19976;-64
2021/05/04 05:16:27;;;;;;;;;;;;;;;;;;5032760;28;20345;-64
2021/05/04 05:18:54;;;;;;;;;;;;;;;;;;5024582;28;19960;-65
2021/05/04 05:21:20;;;;;;;;;;;;;;;;;;5026514;28;20397;-66
2021/05/04 05:23:47;;;;;;;;;;;;;;;;;;5030670;28;19925;-65
2021/05/04 05:26:13;;;;;;;;;;;;;;;;;;5027034;28;19968;-65
2021/05/04 05:28:42;;;;;;;;;;;;;;;;;;5023611;28;19932;-63
2021/05/04 05:31:09;;;;;;;;;;;;;;;;;;5027237;28;20328;-65
2021/05/04 05:33:35;;;;;;;;;;;;;;;;;;5024007;28;20348;-64
2021/05/04 05:36:02;;;;;;;;;;;;;;;;;;5029061;28;19971;-64
2021/05/04 05:38:28;;;;;;;;;;;;;;;;;;5026893;28;20083;-65
2021/05/04 05:40:55;;;;;;;;;;;;;;;;;;5030453;28;19932;-66
2021/05/04 05:43:21;;;;;;;;;;;;;;;;;;5026197;28;19956;-64
2021/05/04 05:45:48;;;;;;;;;;;;;;;;;;5029997;28;20449;-67
2021/05/04 05:48:14;;;;;;;;;;;;;;;;;;5024464;28;19964;-65
2021/05/04 05:50:41;;;;;;;;;;;;;;;;;;5021409;28;20015;-66
2021/05/04 05:53:07;;;;;;;;;;;;;;;;;;5024183;28;19968;-65
2021/05/04 05:55:34;;;;;;;;;;;;;;;;;;5030498;28;19953;-65
2021/05/04 05:58:00;;;;;;;;;;;;;;;;;;5023895;28;21889;-65
2021/05/04 06:00:27;;;;;;;;;;;;;;;;;;5023301;28;19953;-65
2021/05/04 06:02:54;;;;;;;;;;;;;;;;;;5020935;28;19987;-65
2021/05/04 06:05:20;;;;;;;;;;;;;;;;;;5028927;28;19968;-65
2021/05/04 06:07:47;;;;;;;;;;;;;;;;;;5025161;28;19975;-67
2021/05/04 06:10:13;;;;;;;;;;;;;;;;;;5020659;28;20409;-64
2021/05/04 06:12:40;;;;;;;;;;;;;;;;;;5029547;28;19932;-66
2021/05/04 06:15:06;;;;;;;;;;;;;;;;;;5027372;28;19951;-65
2021/05/04 06:17:36;;;;;;;;;;;;;;;;;;5028958;28;20377;-65
2021/05/04 06:20:03;;;;;;;;;;;;;;;;;;5026935;28;19944;-65
2021/05/04 06:22:34;;;;;;;;;;;;;;;;;;5024261;28;19956;-66
2021/05/04 06:25:01;;;;;;;;;;;;;;;;;;5030492;28;20562;-64
2021/05/04 06:27:27;;;;;;;;;;;;;;;;;;5028061;28;20294;-66
2021/05/04 06:29:54;;;;;;;;;;;;;;;;;;5060286;22;19924;-67
2021/05/04 06:32:24;;;;;;;;;;;;;;;;;;5049692;28;19996;-67
2021/05/04 06:34:51;;;;;;;;;;;;;;;;;;5043208;28;19979;-69
2021/05/04 06:37:17;;;;;;;;;;;;;;;;;;5048244;28;19928;-67
2021/05/04 06:39:44;;;;;;;;;;;;;;;;;;5047607;28;19924;-67
2021/05/04 06:42:11;;;;;;;;;;;;;;;;;;5040877;28;19925;-67
2021/05/04 06:44:37;;;;;;;;;;;;;;;;;;5041352;28;19924;-67
2021/05/04 06:47:04;;;;;;;;;;;;;;;;;;5049291;28;19925;-67
2021/05/04 06:49:30;;;;;;;;;;;;;;;;;;5045245;28;20304;-66
2021/05/04 06:51:56;;;;;;;;;;;;;;;;;;5049113;28;19933;-68
2021/05/04 06:54:23;;;;;;;;;;;;;;;;;;5050066;28;19929;-67
2021/05/04 06:56:50;;;;;;;;;;;;;;;;;;5051958;28;20404;-66
2021/05/04 06:59:16;;;;;;;;;;;;;;;;;;5048257;28;20048;-66
2021/05/04 07:01:42;;;;;;;;;;;;;;;;;;5048637;28;20365;-67
2021/05/04 07:04:09;;;;;;;;;;;;;;;;;;5049086;28;19931;-67
2021/05/04 07:06:35;;;;;;;;;;;;;;;;;;5047341;28;20094;-66
2021/05/04 07:09:05;;;;;;;;;;;;;;;;;;5048370;28;20000;-67
2021/05/04 07:11:32;;;;;;;;;;;;;;;;;;5050930;28;19984;-66
2021/05/04 07:13:58;;;;;;;;;;;;;;;;;;5049542;28;19976;-67
2021/05/04 07:16:25;;;;;;;;;;;;;;;;;;5051957;28;20047;-65
2021/05/04 07:18:51;;;;;;;;;;;;;;;;;;5052410;28;20003;-65
2021/05/04 07:21:18;;;;;;;;;;;;;;;;;;5048924;28;19941;-66
2021/05/04 07:23:44;;;;;;;;;;;;;;;;;;5052432;28;20007;-65
2021/05/04 07:26:13;;;;;;;;;;;;;;;;;;5052098;28;19933;-67
2021/05/04 07:28:39;;;;;;;;;;;;;;;;;;5049831;28;19928;-67
2021/05/04 07:31:06;;;;;;;;;;;;;;;;;;5048087;28;20301;-67
2021/05/04 07:33:32;;;;;;;;;;;;;;;;;;5045756;28;19951;-67
2021/05/04 07:36:01;;;;;;;;;;;;;;;;;;5045937;28;19925;-67
2021/05/04 07:38:28;;;;;;;;;;;;;;;;;;5053112;28;19932;-68
2021/05/04 07:40:54;;;;;;;;;;;;;;;;;;5043905;28;20385;-67
2021/05/04 07:43:22;;;;;;;;;;;;;;;;;;5045751;28;19928;-67
2021/05/04 07:45:48;;;;;;;;;;;;;;;;;;5052427;28;19925;-68
2021/05/04 07:48:16;;;;;;;;;;;;;;;;;;5051585;28;19936;-67
2021/05/04 07:50:42;;;;;;;;;;;;;;;;;;5050592;28;19924;-67
2021/05/04 07:53:09;;;;;;;;;;;;;;;;;;5047348;28;20326;-67
2021/05/04 07:55:36;;;;;;;;;;;;;;;;;;5051344;28;20011;-66
2021/05/04 07:58:02;;;;;;;;;;;;;;;;;;5053318;28;20063;-66
2021/05/04 08:00:28;;;;;;;;;;;;;;;;;;5045437;28;20015;-67
2021/05/04 08:02:55;;;;;;;;;;;;;;;;;;5044600;28;19931;-67
2021/05/04 08:05:23;;;;;;;;;;;;;;;;;;5045036;28;19931;-66
2021/05/04 08:07:50;;;;;;;;;;;;;;;;;;5045216;28;19924;-66
2021/05/04 08:10:16;;;;;;;;;;;;;;;;;;5050670;28;19932;-67
2021/05/04 08:12:43;;;;;;;;;;;;;;;;;;5052708;28;19929;-67
2021/05/04 08:15:14;;;;;;;;;;;;;;;;;;5049650;28;19925;-67
2021/05/04 08:17:42;;;;;;;;;;;;;;;;;;5049698;28;20251;-67
2021/05/04 08:20:08;;;;;;;;;;;;;;;;;;5050284;28;19925;-67
2021/05/04 08:22:36;;;;;;;;;;;;;;;;;;5052805;28;19932;-68
2021/05/04 08:25:02;;;;;;;;;;;;;;;;;;5050660;28;20435;-67
2021/05/04 08:27:28;;;;;;;;;;;;;;;;;;5049552;28;19977;-67
2021/05/04 08:29:55;;;;;;;;;;;;;;;;;;5054589;28;19951;-67
2021/05/04 08:32:21;;;;;;;;;;;;;;;;;;5057337;28;20016;-67
2021/05/04 08:34:48;;;;;;;;;;;;;;;;;;5047755;28;20015;-66
2021/05/04 08:37:14;;;;;;;;;;;;;;;;;;5048548;28;20299;-67
2021/05/04 08:39:41;;;;;;;;;;;;;;;;;;5051664;28;21548;-67
2021/05/04 08:42:07;;;;;;;;;;;;;;;;;;5049451;28;20285;-68
2021/05/04 08:44:34;;;;;;;;;;;;;;;;;;5046668;28;19925;-67
2021/05/04 08:47:00;;;;;;;;;;;;;;;;;;5051171;28;19925;-67
2021/05/04 08:49:27;;;;;;;;;;;;;;;;;;5045522;28;20295;-66
2021/05/04 08:51:54;;;;;;;;;;;;;;;;;;5052027;28;20012;-67
2021/05/04 08:54:20;;;;;;;;;;;;;;;;;;5046676;28;19925;-67
2021/05/04 08:56:47;;;;;;;;;;;;;;;;;;5048306;28;20063;-67
2021/05/04 08:59:13;;;;;;;;;;;;;;;;;;5052620;28;20423;-66
2021/05/04 09:01:40;;;;;;;;;;;;;;;;;;5044266;28;19978;-66
2021/05/04 09:04:08;;;;;;;;;;;;;;;;;;5048319;28;19933;-67
2021/05/04 09:06:38;;;;;;;;;;;;;;;;;;5044838;28;19978;-67
2021/05/04 09:09:06;;;;;;;;;;;;;;;;;;5052610;28;19936;-68
2021/05/04 09:11:56;;;;;;;;;;;;;;;;;;5047330;28;19964;-66
2021/05/04 09:14:29;;;;;;;;;;;;;;;;;;5042586;28;19925;-67
2021/05/04 09:16:56;;;;;;;;;;;;;;;;;;5050400;28;19932;-66
2021/05/04 09:19:38;;;;;;;;;;;;;;;;;;5051399;28;20232;-66
2021/05/04 09:22:04;;;;;;;;;;;;;;;;;;5045767;28;20404;-66
2021/05/04 09:24:33;;;;;;;;;;;;;;;;;;5042148;28;19928;-67
2021/05/04 09:27:00;;;;;;;;;;;;;;;;;;5051066;28;19925;-66
2021/05/04 09:29:26;;;;;;;;;;;;;;;;;;5048826;28;20337;-66
2021/05/04 09:31:53;;;;;;;;;;;;;;;;;;5048277;28;20015;-66
2021/05/04 09:34:20;;;;;;;;;;;;;;;;;;5048464;28;19975;-67
2021/05/04 09:36:47;;;;;;;;;;;;;;;;;;5048259;28;19971;-67
2021/05/04 09:39:14;;;;;;;;;;;;;;;;;;5051861;28;20289;-67
2021/05/04 09:41:41;;;;;;;;;;;;;;;;;;5046601;28;19970;-67
2021/05/04 09:44:07;;;;;;;;;;;;;;;;;;5047367;28;19925;-67
2021/05/04 09:46:34;;;;;;;;;;;;;;;;;;5051644;28;19931;-67
2021/05/04 09:49:00;;;;;;;;;;;;;;;;;;5052575;28;19931;-66
2021/05/04 09:51:27;;;;;;;;;;;;;;;;;;5049807;28;20015;-66
2021/05/04 09:54:05;;;;;;;;;;;;;;;;;;5044073;28;21537;-67
2021/05/04 09:56:34;;;;;;;;;;;;;;;;;;5045281;28;20019;-67
2021/05/04 09:59:01;;;;;;;;;;;;;;;;;;5043013;28;19925;-68
2021/05/04 10:01:28;;;;;;;;;;;;;;;;;;5048246;28;19931;-66
2021/05/04 10:03:54;;;;;;;;;;;;;;;;;;5042699;28;19939;-67
2021/05/04 10:06:21;;;;;;;;;;;;;;;;;;5047819;28;20328;-65
2021/05/04 10:08:48;;;;;;;;;;;;;;;;;;5050640;28;20369;-68
2021/05/04 10:11:14;;;;;;;;;;;;;;;;;;5050439;28;19933;-66
2021/05/04 10:13:41;;;;;;;;;;;;;;;;;;5049382;28;19962;-67
2021/05/04 10:16:07;;;;;;;;;;;;;;;;;;5048432;28;20388;-67
2021/05/04 10:18:34;;;;;;;;;;;;;;;;;;5047660;28;20032;-67
2021/05/04 10:21:00;;;;;;;;;;;;;;;;;;5046092;28;19925;-67
2021/05/04 10:23:27;;;;;;;;;;;;;;;;;;5043888;28;20344;-67
2021/05/04 10:25:53;;;;;;;;;;;;;;;;;;5041568;28;19933;-66
2021/05/04 10:28:20;;;;;;;;;;;;;;;;;;5049889;28;20303;-68
2021/05/04 10:30:46;;;;;;;;;;;;;;;;;;5049265;28;20055;-66
2021/05/04 10:33:14;;;;;;;;;;;;;;;;;;5049822;28;19990;-66
2021/05/04 10:35:42;;;;;;;;;;;;;;;;;;5044297;28;19928;-67
2021/05/04 10:38:08;;;;;;;;;;;;;;;;;;5049914;28;19932;-65
2021/05/04 10:40:35;;;;;;;;;;;;;;;;;;5048362;28;20435;-67
2021/05/04 10:43:01;;;;;;;;;;;;;;;;;;5045272;28;19991;-65
2021/05/04 10:45:28;;;;;;;;;;;;;;;;;;5042503;28;19933;-66
2021/05/04 10:47:54;;;;;;;;;;;;;;;;;;5045325;28;20377;-67
2021/05/04 10:50:23;;;;;;;;;;;;;;;;;;5045505;28;19929;-68
2021/05/04 10:52:49;;;;;;;;;;;;;;;;;;5043711;28;19925;-68
2021/05/04 10:55:16;;;;;;;;;;;;;;;;;;5044867;28;20412;-68
2021/05/04 10:57:42;;;;;;;;;;;;;;;;;;5046191;28;19935;-69
2021/05/04 11:00:09;;;;;;;;;;;;;;;;;;5042282;28;19978;-68
2021/05/04 11:02:35;;;;;;;;;;;;;;;;;;5046970;28;20020;-67
2021/05/04 11:05:02;;;;;;;;;;;;;;;;;;5037241;28;20304;-67
2021/05/04 11:07:28;;;;;;;;;;;;;;;;;;5042284;28;20023;-69
2021/05/04 11:09:55;;;;;;;;;;;;;;;;;;5046899;28;19932;-67
2021/05/04 11:12:21;;;;;;;;;;;;;;;;;;5047033;28;19964;-67
2021/05/04 11:14:48;;;;;;;;;;;;;;;;;;5044723;28;20039;-67
2021/05/04 11:17:16;;;;;;;;;;;;;;;;;;5043803;28;19928;-67
2021/05/04 11:19:42;;;;;;;;;;;;;;;;;;5044255;28;19925;-65
2021/05/04 11:22:09;;;;;;;;;;;;;;;;;;5045349;28;19925;-64
2021/05/04 11:24:35;;;;;;;;;;;;;;;;;;5044582;28;19925;-67
2021/05/04 11:27:02;;;;;;;;;;;;;;;;;;5045903;28;19925;-67
2021/05/04 11:29:28;;;;;;;;;;;;;;;;;;5047224;28;19924;-67
2021/05/04 11:31:55;;;;;;;;;;;;;;;;;;5041305;28;19925;-67
2021/05/04 11:34:22;;;;;;;;;;;;;;;;;;5046894;28;20020;-68
2021/05/04 11:36:48;;;;;;;;;;;;;;;;;;5038812;28;19963;-67
2021/05/04 11:39:15;;;;;;;;;;;;;;;;;;5046883;28;20355;-68
2021/05/04 11:41:41;;;;;;;;;;;;;;;;;;5041500;28;20012;-67
2021/05/04 11:44:08;;;;;;;;;;;;;;;;;;5043850;28;19925;-69
2021/05/04 11:46:35;;;;;;;;;;;;;;;;;;5043055;28;20011;-68
2021/05/04 11:49:01;;;;;;;;;;;;;;;;;;5046317;28;20340;-67
2021/05/04 11:51:28;;;;;;;;;;;;;;;;;;5041556;28;19972;-69
2021/05/04 11:53:54;;;;;;;;;;;;;;;;;;5042828;28;19987;-67
2021/05/04 11:56:21;;;;;;;;;;;;;;;;;;5047464;28;19972;-68
2021/05/04 11:58:48;;;;;;;;;;;;;;;;;;5040746;28;19964;-68
2021/05/04 12:01:16;;;;;;;;;;;;;;;;;;5043989;28;19932;-69
2021/05/04 12:03:43;;;;;;;;;;;;;;;;;;5045545;28;19932;-68
2021/05/04 12:06:09;;;;;;;;;;;;;;;;;;5040349;28;20497;-66
2021/05/04 12:08:36;;;;;;;;;;;;;;;;;;5046857;28;20415;-67
2021/05/04 12:11:02;;;;;;;;;;;;;;;;;;5044474;28;19948;-68
2021/05/04 12:13:29;;;;;;;;;;;;;;;;;;5043988;28;19924;-67
2021/05/04 12:16:00;;;;;;;;;;;;;;;;;;5039535;28;19979;-67
2021/05/04 12:18:28;;;;;;;;;;;;;;;;;;5046718;28;19979;-69
2021/05/04 12:20:55;;;;;;;;;;;;;;;;;;5043628;28;20022;-70
2021/05/04 12:23:21;;;;;;;;;;;;;;;;;;5044758;28;19940;-68
2021/05/04 12:25:50;;;;;;;;;;;;;;;;;;5039870;28;20027;-67
2021/05/04 12:28:16;;;;;;;;;;;;;;;;;;5042247;28;20058;-66
2021/05/04 12:30:43;;;;;;;;;;;;;;;;;;5068792;22;19982;-66
2021/05/04 12:33:09;;;;;;;;;;;;;;;;;;5058349;28;19925;-66
2021/05/04 12:35:38;;;;;;;;;;;;;;;;;;5052444;28;20039;-68
2021/05/04 12:38:05;;;;;;;;;;;;;;;;;;5049372;28;19925;-67
2021/05/04 12:40:31;;;;;;;;;;;;;;;;;;5045891;28;20471;-64
2021/05/04 12:42:58;;;;;;;;;;;;;;;;;;5046582;28;19924;-72
2021/05/04 12:45:24;;;;;;;;;;;;;;;;;;5043421;28;20347;-67
2021/05/04 12:47:51;;;;;;;;;;;;;;;;;;5048465;28;19932;-67
2021/05/04 12:50:17;;;;;;;;;;;;;;;;;;5046959;28;19925;-66
2021/05/04 12:52:44;;;;;;;;;;;;;;;;;;5045324;28;19925;-65
2021/05/04 12:55:10;;;;;;;;;;;;;;;;;;5047465;28;19933;-69
2021/05/04 12:57:37;;;;;;;;;;;;;;;;;;5049303;28;19971;-71
2021/05/04 13:00:03;;;;;;;;;;;;;;;;;;5045351;28;20058;-67
2021/05/04 13:02:31;;;;;;;;;;;;;;;;;;5044252;28;20071;-66
2021/05/04 13:05:00;;;;;;;;;;;;;;;;;;5045521;28;20273;-72
2021/05/04 13:07:27;;;;;;;;;;;;;;;;;;5043109;28;19972;-66
2021/05/04 13:09:54;;;;;;;;;;;;;;;;;;5046696;28;20443;-66
2021/05/04 13:12:34;;;;;;;;;;;;;;;;;;5047955;28;19925;-68
2021/05/04 13:15:22;;;;;;;;;;;;;;;;;;5041014;28;19924;-69
2021/05/04 13:28:44;;;;;;;;;;;;;;;;;;5040823;28;19927;-72
2021/05/04 13:31:10;;;;;;;;;;;;;;;;;;5046214;28;19978;-74
2021/05/04 13:33:37;;;;;;;;;;;;;;;;;;5044314;28;20012;-71
2021/05/04 13:36:06;;;;;;;;;;;;;;;;;;5046123;28;19971;-69
2021/05/04 13:38:41;;;;;;;;;;;;;;;;;;5042690;28;19931;-70
2021/05/04 13:49:32;;;;;;;;;;;;;;;;;;5041657;28;19950;-69
2021/05/04 13:51:59;;;;;;;;;;;;;;;;;;5042745;28;20295;-71
2021/05/04 13:54:25;;;;;;;;;;;;;;;;;;5038342;28;19939;-68
2021/05/04 13:56:52;;;;;;;;;;;;;;;;;;5046579;28;19979;-68
2021/05/04 13:59:18;;;;;;;;;;;;;;;;;;5042409;28;19932;-67
2021/05/04 14:01:48;;;;;;;;;;;;;;;;;;5049376;28;19932;-64
2021/05/04 14:04:24;;;;;;;;;;;;;;;;;;5039655;28;19928;-67
2021/05/04 14:07:13;;;;;;;;;;;;;;;;;;5047356;28;19931;-68
2021/05/04 14:14:23;;;;;;;;;;;;;;;;;;5043865;28;20300;-67
2021/05/04 14:26:23;;;;;;;;;;;;;;;;;;5040319;28;19931;-66
2021/05/04 14:28:49;;;;;;;;;;;;;;;;;;5040311;28;19925;-71
2021/05/04 14:31:16;;;;;;;;;;;;;;;;;;5046068;28;19933;-67
2021/05/04 14:33:42;;;;;;;;;;;;;;;;;;5038324;28;19925;-68
2021/05/04 14:38:53;;;;;;;;;;;;;;;;;;5035135;28;19921;-68
2021/05/04 14:58:15;;;;;;;;;;;;;;;;;;5035543;28;19924;-67
2021/05/04 15:00:56;;;;;;;;;;;;;;;;;;5041864;28;19968;-69
2021/05/04 15:03:22;;;;;;;;;;;;;;;;;;5046597;28;20015;-68
2021/05/04 15:05:49;;;;;;;;;;;;;;;;;;5042136;28;19929;-65
2021/05/04 15:08:15;;;;;;;;;;;;;;;;;;5043379;28;20350;-65
2021/05/04 15:10:43;;;;;;;;;;;;;;;;;;5047639;28;19975;-67
2021/05/04 15:13:12;;;;;;;;;;;;;;;;;;5048773;28;19925;-69
2021/05/04 15:15:47;;;;;;;;;;;;;;;;;;5041687;28;19925;-65
2021/05/04 15:20:40;;;;;;;;;;;;;;;;;;5046789;28;20020;-66
2021/05/04 15:23:57;;;;;;;;;;;;;;;;;;5020422;28;19929;-69
2021/05/04 15:26:23;;;;;;;;;;;;;;;;;;5041190;28;19978;-69
2021/05/04 15:28:50;;;;;;;;;;;;;;;;;;5038499;28;19964;-66
2021/05/04 15:31:18;;;;;;;;;;;;;;;;;;5046692;28;19933;-68
2021/05/04 15:33:45;;;;;;;;;;;;;;;;;;5043286;28;20071;-70
2021/05/04 15:36:11;;;;;;;;;;;;;;;;;;5046866;28;19925;-68
2021/05/04 15:38:38;;;;;;;;;;;;;;;;;;5049023;28;19929;-65
2021/05/04 15:41:04;;;;;;;;;;;;;;;;;;5046280;28;19925;-69
2021/05/04 15:43:31;;;;;;;;;;;;;;;;;;5044415;28;20327;-66
2021/05/04 15:46:06;;;;;;;;;;;;;;;;;;5046312;28;19966;-65
2021/05/04 15:48:38;;;;;;;;;;;;;;;;;;5043513;28;20143;-66
2021/05/04 15:51:18;;;;;;;;;;;;;;;;;;5040084;28;20449;-66
2021/05/04 15:53:58;;;;;;;;;;;;;;;;;;5041843;28;19932;-65
2021/05/04 16:02:04;;;;;;;;;;;;;;;;;;5046304;28;19931;-67
2021/05/04 16:07:17;;;;;;;;;;;;;;;;;;5046877;28;19924;-69
2021/05/04 16:09:45;;;;;;;;;;;;;;;;;;5047446;28;20377;-69
2021/05/04 16:12:12;;;;;;;;;;;;;;;;;;5046315;28;19979;-70
2021/05/04 16:14:39;;;;;;;;;;;;;;;;;;5045872;28;20345;-68
2021/05/04 16:17:05;;;;;;;;;;;;;;;;;;5045524;28;20027;-67
2021/05/04 16:19:34;;;;;;;;;;;;;;;;;;5047307;28;20350;-68
2021/05/04 16:22:02;;;;;;;;;;;;;;;;;;5043982;28;19925;-70
2021/05/04 16:24:32;;;;;;;;;;;;;;;;;;5041771;28;19931;-69
2021/05/04 16:27:09;;;;;;;;;;;;;;;;;;5045019;28;19924;-68
2021/05/04 16:32:19;;;;;;;;;;;;;;;;;;5048919;28;19925;-68
2021/05/04 16:34:45;;;;;;;;;;;;;;;;;;5041022;28;20023;-68
2021/05/04 16:37:15;;;;;;;;;;;;;;;;;;5045597;28;20296;-67
2021/05/04 16:39:42;;;;;;;;;;;;;;;;;;5048446;28;20483;-67
2021/05/04 16:42:11;;;;;;;;;;;;;;;;;;5044746;28;20024;-68
2021/05/04 16:44:37;;;;;;;;;;;;;;;;;;5048775;28;20393;-67
2021/05/04 16:47:04;;;;;;;;;;;;;;;;;;5045147;28;20691;-66
2021/05/04 16:49:31;;;;;;;;;;;;;;;;;;5047394;28;19967;-65
2021/05/04 16:51:59;;;;;;;;;;;;;;;;;;5044946;28;19925;-67
2021/05/04 16:54:26;;;;;;;;;;;;;;;;;;5045618;28;19924;-68
2021/05/04 16:56:52;;;;;;;;;;;;;;;;;;5041920;28;20289;-68
2021/05/04 16:59:19;;;;;;;;;;;;;;;;;;5044551;28;19929;-68
2021/05/04 17:01:45;;;;;;;;;;;;;;;;;;5045497;28;20007;-66
2021/05/04 17:04:12;;;;;;;;;;;;;;;;;;5046359;28;20313;-66
2021/05/04 17:06:43;;;;;;;;;;;;;;;;;;5042872;28;19936;-67
2021/05/04 17:09:29;;;;;;;;;;;;;;;;;;5044602;28;19983;-67
2021/05/04 17:11:56;;;;;;;;;;;;;;;;;;5044502;28;19998;-65
2021/05/04 17:14:23;;;;;;;;;;;;;;;;;;5049073;28;19935;-68
2021/05/04 17:16:49;;;;;;;;;;;;;;;;;;5042390;28;19947;-67
2021/05/04 17:19:16;;;;;;;;;;;;;;;;;;5045303;28;20309;-68
2021/05/04 17:21:43;;;;;;;;;;;;;;;;;;5026457;28;19933;-67
2021/05/04 17:24:09;;;;;;;;;;;;;;;;;;5044113;28;20019;-67
2021/05/04 17:26:36;;;;;;;;;;;;;;;;;;5048161;28;19925;-67
2021/05/04 17:29:02;;;;;;;;;;;;;;;;;;5048974;28;19998;-65
2021/05/04 17:31:29;;;;;;;;;;;;;;;;;;5052488;28;19988;-67
2021/05/04 17:33:56;;;;;;;;;;;;;;;;;;5059466;28;19929;-67
2021/05/04 17:36:22;;;;;;;;;;;;;;;;;;5051341;28;19936;-67
2021/05/04 17:38:52;;;;;;;;;;;;;;;;;;5045546;28;19925;-67
2021/05/04 17:41:19;;;;;;;;;;;;;;;;;;5053577;28;19925;-65
2021/05/04 17:43:45;;;;;;;;;;;;;;;;;;5056435;28;19929;-67
2021/05/04 17:46:12;;;;;;;;;;;;;;;;;;5059832;28;19948;-67
2021/05/04 17:48:38;;;;;;;;;;;;;;;;;;5053690;28;19925;-66
2021/05/04 17:51:05;;;;;;;;;;;;;;;;;;5048229;28;19935;-66
2021/05/04 17:53:31;;;;;;;;;;;;;;;;;;5044270;28;19925;-67